Time;durP1;ratioP1;P1;durP2;ratioP2;P2;SDS_P1;SDS_P2;PMS_P1;PMS_P2;Temp;Humidity;BMP_temperature;BMP_pressure;BME280_temperature;BME280_humidity;BME280_pressure;Samples;Min_cycle;Max_cycle;Signal;HPM_P1;HPM_P2
2022/12/19 00:01:17;;;;;;;52.50;28.90;;;;;;;-2.83;100.00;97591.31;4993904;28;20549;-63
2022/12/19 00:03:45;;;;;;;53.97;29.47;;;;;;;-2.78;100.00;97596.88;4993158;28;20182;-64
2022/12/19 00:06:11;;;;;;;51.63;28.20;;;;;;;-2.92;100.00;97601.50;4994171;28;20191;-63
2022/12/19 00:08:37;;;;;;;51.53;28.33;;;;;;;-2.86;100.00;97601.81;5004807;28;20726;-63
2022/12/19 00:11:02;;;;;;;48.17;26.67;;;;;;;-2.66;100.00;97613.84;4993057;28;20258;-63
2022/12/19 00:13:30;;;;;;;53.67;28.33;;;;;;;-2.63;100.00;97615.38;4993040;28;20208;-63
2022/12/19 00:16:07;;;;;;;50.60;27.40;;;;;;;-2.49;100.00;97629.63;4993051;28;20183;-63
2022/12/19 00:18:33;;;;;;;49.57;28.17;;;;;;;-2.42;100.00;97626.44;4992954;28;20187;-64
2022/12/19 00:21:01;;;;;;;49.57;27.83;;;;;;;-2.41;100.00;97622.94;4993173;28;20639;-63
2022/12/19 00:23:28;;;;;;;52.43;27.50;;;;;;;-2.40;100.00;97618.63;4993166;28;20210;-62
2022/12/19 00:25:54;;;;;;;50.80;27.27;;;;;;;-2.30;100.00;97620.31;4990851;28;20271;-62
2022/12/19 00:28:20;;;;;;;49.90;28.27;;;;;;;-2.49;100.00;97621.94;4992977;28;20278;-62
2022/12/19 00:30:46;;;;;;;54.87;27.57;;;;;;;-2.46;100.00;97617.38;4992687;28;20188;-62
2022/12/19 00:33:11;;;;;;;49.70;29.53;;;;;;;-2.59;100.00;97621.88;4993557;28;20291;-61
2022/12/19 00:35:36;;;;;;;50.93;28.57;;;;;;;-2.69;100.00;97615.88;4993375;28;20183;-62
2022/12/19 00:38:02;;;;;;;52.17;28.40;;;;;;;-2.66;100.00;97621.56;4993044;28;20194;-62
2022/12/19 00:40:28;;;;;;;52.20;29.20;;;;;;;-2.46;100.00;97619.13;4993249;28;20263;-63
2022/12/19 00:42:53;;;;;;;46.77;28.50;;;;;;;-2.52;100.00;97608.44;4992856;28;20607;-61
2022/12/19 00:45:19;;;;;;;48.27;28.23;;;;;;;-2.47;100.00;97596.97;4996581;28;20191;-63
2022/12/19 00:47:44;;;;;;;48.00;28.13;;;;;;;-2.54;100.00;97588.94;4996778;28;20176;-62
2022/12/19 00:50:09;;;;;;;52.07;27.83;;;;;;;-2.52;100.00;97594.78;4996953;28;20203;-62
2022/12/19 00:52:35;;;;;;;44.13;26.57;;;;;;;-2.65;100.00;97584.69;4996858;28;20222;-62
2022/12/19 00:55:00;;;;;;;46.50;28.33;;;;;;;-2.47;100.00;97604.66;4996536;28;20246;-62
2022/12/19 00:57:26;;;;;;;52.67;29.37;;;;;;;-2.55;100.00;97592.44;4994823;28;20191;-62
2022/12/19 00:59:51;;;;;;;52.73;29.13;;;;;;;-2.40;100.00;97598.09;4996812;28;20636;-63
2022/12/19 01:02:16;;;;;;;49.40;27.10;;;;;;;-2.39;100.00;97572.28;4996628;28;20208;-62
2022/12/19 01:04:42;;;;;;;53.10;27.53;;;;;;;-2.31;100.00;97581.94;4996950;28;20250;-62
2022/12/19 01:07:07;;;;;;;57.47;29.10;;;;;;;-2.26;100.00;97572.09;5009496;28;20218;-62
2022/12/19 01:09:35;;;;;;;51.77;27.50;;;;;;;-2.30;100.00;97565.59;5016343;28;20199;-62
2022/12/19 01:14:45;;;;;;;54.40;29.67;;;;;;;-2.33;100.00;97561.53;4996798;28;20702;-62
2022/12/19 01:17:11;;;;;;;49.03;28.27;;;;;;;-2.41;100.00;97557.97;4995932;28;20195;-62
2022/12/19 01:19:37;;;;;;;49.63;29.43;;;;;;;-2.49;100.00;97547.50;4996365;28;20220;-62
2022/12/19 01:22:02;;;;;;;51.53;29.80;;;;;;;-2.44;100.00;97551.31;4996412;28;20180;-62
2022/12/19 01:24:28;;;;;;;52.20;30.03;;;;;;;-2.47;100.00;97566.19;4996415;28;20195;-62
2022/12/19 01:26:53;;;;;;;52.37;30.17;;;;;;;-2.36;100.00;97555.84;4994134;28;20240;-62
2022/12/19 01:29:18;;;;;;;52.27;28.50;;;;;;;-2.35;100.00;97557.47;4996145;28;20212;-62
2022/12/19 01:31:44;;;;;;;55.07;29.97;;;;;;;-2.40;100.00;97554.47;4996073;28;20172;-62
2022/12/19 01:34:09;;;;;;;55.10;29.10;;;;;;;-2.41;100.00;97561.34;4996419;28;20196;-62
2022/12/19 01:36:35;;;;;;;54.60;30.37;;;;;;;-2.30;100.00;97558.72;4996501;28;20183;-61
2022/12/19 01:39:00;;;;;;;53.33;30.00;;;;;;;-2.29;100.00;97552.66;4996546;28;20204;-63
2022/12/19 01:41:26;;;;;;;54.83;31.57;;;;;;;-2.36;100.00;97545.56;4996423;28;20234;-62
2022/12/19 01:44:04;;;;;;;54.87;31.70;;;;;;;-2.29;100.00;97547.50;4997058;28;20179;-62
2022/12/19 01:46:45;;;;;;;53.63;30.93;;;;;;;-2.34;100.00;97541.13;4996403;28;20709;-62
2022/12/19 01:49:30;;;;;;;57.83;32.67;;;;;;;-2.47;100.00;97537.94;4995813;28;20204;-62
2022/12/19 01:51:59;;;;;;;59.60;31.60;;;;;;;-2.58;100.00;97544.78;4981297;28;20267;-62
2022/12/19 01:54:32;;;;;;;58.17;31.93;;;;;;;-2.63;100.00;97534.09;4995815;28;20542;-62
2022/12/19 01:57:00;;;;;;;56.60;32.40;;;;;;;-2.57;100.00;97538.72;4993887;28;20184;-62
2022/12/19 01:59:44;;;;;;;55.97;31.57;;;;;;;-2.45;100.00;97536.88;4995813;28;20575;-62
2022/12/19 02:02:14;;;;;;;54.73;30.93;;;;;;;-2.47;100.00;97515.66;4983041;28;20186;-62
2022/12/19 02:04:43;;;;;;;56.03;31.40;;;;;;;-2.55;100.00;97515.47;4995848;28;20195;-62
2022/12/19 02:07:08;;;;;;;57.97;33.00;;;;;;;-2.58;100.00;97511.44;4975266;28;20340;-62
2022/12/19 02:09:35;;;;;;;59.97;31.77;;;;;;;-2.53;100.00;97506.72;4995460;28;20286;-63
2022/12/19 02:12:01;;;;;;;54.37;30.93;;;;;;;-2.54;100.00;97509.41;4995304;28;20698;-63
2022/12/19 02:14:27;;;;;;;54.80;31.53;;;;;;;-2.47;100.00;97504.59;4995707;28;20311;-62
2022/12/19 02:17:15;;;;;;;58.73;32.57;;;;;;;-2.40;100.00;97514.22;4995209;28;20183;-63
2022/12/19 02:20:11;;;;;;;55.57;31.27;;;;;;;-2.41;100.00;97515.16;4994917;28;20675;-63
2022/12/19 02:23:13;;;;;;;59.30;32.70;;;;;;;-2.29;100.00;97510.75;4989100;28;20180;-63
2022/12/19 02:26:48;;;;;;;53.20;30.70;;;;;;;-2.36;100.00;97512.22;4993411;28;20231;-62
2022/12/19 02:30:15;;;;;;;58.07;34.40;;;;;;;-2.34;100.00;97518.81;4915910;29;20278;-61
2022/12/19 02:33:02;;;;;;;59.07;31.43;;;;;;;-2.34;100.00;97518.03;4856348;29;20258;-64
2022/12/19 02:35:46;;;;;;;54.50;31.93;;;;;;;-2.29;100.00;97521.84;4903462;29;20179;-63
2022/12/19 02:38:17;;;;;;;59.13;33.10;;;;;;;-2.30;100.00;97516.81;4916008;29;20246;-62
2022/12/19 02:40:52;;;;;;;58.67;32.27;;;;;;;-2.26;100.00;97513.06;4916118;29;20218;-62
2022/12/19 02:43:20;;;;;;;59.57;33.30;;;;;;;-2.26;100.00;97511.31;4901288;29;20701;-62
2022/12/19 02:45:46;;;;;;;57.60;32.87;;;;;;;-2.20;100.00;97517.69;4916062;29;20290;-62
2022/12/19 02:48:12;;;;;;;56.30;32.83;;;;;;;-2.35;100.00;97504.38;4915467;29;20272;-62
2022/12/19 02:50:40;;;;;;;57.37;33.07;;;;;;;-2.17;100.00;97507.13;4915765;29;20336;-62
2022/12/19 02:53:08;;;;;;;56.00;32.67;;;;;;;-2.16;100.00;97501.06;4915727;29;20226;-62
2022/12/19 02:55:46;;;;;;;57.13;32.97;;;;;;;-2.04;100.00;97500.03;4915697;29;20191;-61
2022/12/19 02:58:26;;;;;;;55.40;31.33;;;;;;;-2.06;100.00;97495.97;4918160;29;20194;-62
2022/12/19 03:01:01;;;;;;;60.03;32.40;;;;;;;-2.02;100.00;97490.44;4971557;28;20203;-62
2022/12/19 03:03:38;;;;;;;53.30;30.23;;;;;;;-1.96;100.00;97514.78;4978267;28;20603;-62
2022/12/19 03:06:19;;;;;;;55.30;32.97;;;;;;;-1.88;100.00;97514.94;4975171;28;20198;-61
2022/12/19 03:08:47;;;;;;;54.57;31.40;;;;;;;-1.82;100.00;97519.56;4992884;28;20223;-62
2022/12/19 03:11:14;;;;;;;53.93;30.30;;;;;;;-1.72;100.00;97508.34;4994087;28;20176;-62
2022/12/19 03:13:55;;;;;;;57.43;30.57;;;;;;;-1.65;100.00;97498.38;4994416;28;20216;-61
2022/12/19 03:16:22;;;;;;;51.80;31.77;;;;;;;-1.67;100.00;97486.63;4976574;28;20252;-62
2022/12/19 03:18:48;;;;;;;54.33;31.30;;;;;;;-1.59;100.00;97484.16;4994346;28;20625;-62
2022/12/19 03:21:16;;;;;;;52.73;31.80;;;;;;;-1.63;100.00;97493.91;4994079;28;20186;-62
2022/12/19 03:23:44;;;;;;;49.50;29.60;;;;;;;-1.47;100.00;97508.81;4994173;28;20634;-62
2022/12/19 03:26:15;;;;;;;48.30;30.03;;;;;;;-1.51;100.00;97510.84;4992051;28;20729;-62
2022/12/19 03:28:55;;;;;;;53.73;30.73;;;;;;;-1.41;100.00;97521.13;4986590;28;20212;-62
2022/12/19 03:31:24;;;;;;;48.17;29.90;;;;;;;-1.40;100.00;97527.91;4993536;28;20188;-62
2022/12/19 03:33:58;;;;;;;52.03;30.17;;;;;;;-1.34;100.00;97533.28;4994134;28;20196;-62
2022/12/19 03:36:29;;;;;;;52.37;29.67;;;;;;;-1.30;100.00;97528.72;4993851;28;20270;-64
2022/12/19 03:38:58;;;;;;;48.30;29.47;;;;;;;-1.26;100.00;97535.22;4993964;28;20219;-62
2022/12/19 03:44:13;;;;;;;50.47;29.93;;;;;;;-1.34;100.00;97537.66;4994583;28;20230;-62
2022/12/19 03:46:44;;;;;;;49.77;29.83;;;;;;;-1.35;100.00;97536.84;4993806;28;20608;-62
2022/12/19 03:49:11;;;;;;;49.13;29.10;;;;;;;-1.27;100.00;97528.44;4993813;28;20266;-62
2022/12/19 03:51:42;;;;;;;51.10;28.67;;;;;;;-1.20;100.00;97526.97;4993839;28;20184;-64
2022/12/19 03:54:20;;;;;;;49.33;27.70;;;;;;;-1.13;100.00;97522.09;4993735;28;20207;-63
2022/12/19 03:57:10;;;;;;;52.60;29.00;;;;;;;-1.16;100.00;97530.88;4991017;28;20218;-64
2022/12/19 03:59:39;;;;;;;47.97;28.53;;;;;;;-1.24;100.00;97529.94;4993484;28;20267;-63
2022/12/19 04:02:06;;;;;;;49.23;27.97;;;;;;;-1.20;100.00;97526.97;4993696;28;20207;-64
2022/12/19 04:04:37;;;;;;;47.50;28.60;;;;;;;-1.15;100.00;97529.94;4993772;28;20282;-63
2022/12/19 04:07:05;;;;;;;48.20;27.37;;;;;;;-1.11;100.00;97531.28;4977421;28;20231;-63
2022/12/19 04:09:32;;;;;;;48.43;27.47;;;;;;;-1.03;100.00;97526.28;4993298;28;20530;-63
2022/12/19 04:12:03;;;;;;;47.10;28.17;;;;;;;-1.00;100.00;97530.34;4972754;28;20271;-63
2022/12/19 04:14:32;;;;;;;49.90;27.97;;;;;;;-1.04;100.00;97534.94;4985395;28;20179;-64
2022/12/19 04:17:22;;;;;;;50.87;29.80;;;;;;;-1.15;100.00;97536.84;4992651;28;20191;-62
2022/12/19 04:19:59;;;;;;;48.90;27.63;;;;;;;-1.13;100.00;97548.63;4993302;28;20212;-62
2022/12/19 04:22:32;;;;;;;48.20;28.33;;;;;;;-1.13;100.00;97545.25;4993377;28;20190;-62
2022/12/19 04:27:30;;;;;;;50.17;27.27;;;;;;;-0.97;100.00;97545.50;4971480;28;20229;-62
2022/12/19 04:29:58;;;;;;;47.43;27.20;;;;;;;-1.04;100.00;97542.66;4973704;28;20719;-63
2022/12/19 04:32:24;;;;;;;48.87;29.93;;;;;;;-1.06;100.00;97547.13;4973857;28;20197;-62
2022/12/19 04:34:49;;;;;;;53.87;29.13;;;;;;;-1.16;100.00;97551.44;4994714;23;20240;-62
2022/12/19 04:37:15;;;;;;;52.90;29.80;;;;;;;-1.08;100.00;97551.59;4992732;28;20177;-61
2022/12/19 04:39:41;;;;;;;55.67;30.47;;;;;;;-1.08;100.00;97553.34;4993212;28;20211;-62
2022/12/19 04:42:06;;;;;;;53.23;30.33;;;;;;;-1.00;100.00;97551.72;4993138;28;20565;-62
2022/12/19 04:44:32;;;;;;;53.30;30.53;;;;;;;-0.91;100.00;97555.25;4993043;28;20176;-62
2022/12/19 04:46:57;;;;;;;50.30;30.00;;;;;;;-0.80;100.00;97557.69;4992119;28;20255;-62
2022/12/19 04:49:22;;;;;;;50.80;29.17;;;;;;;-0.74;100.00;97551.19;4993192;28;20758;-61
2022/12/19 04:51:48;;;;;;;52.23;27.93;;;;;;;-0.72;100.00;97544.94;4993153;28;20608;-62
2022/12/19 04:54:14;;;;;;;45.47;26.07;;;;;;;-0.49;100.00;97545.44;4993327;28;20212;-62
2022/12/19 04:56:39;;;;;;;51.43;27.47;;;;;;;-0.47;100.00;97546.94;4993112;28;20168;-62
2022/12/19 04:59:05;;;;;;;49.10;26.73;;;;;;;-0.50;100.00;97538.66;4992845;28;20697;-62
2022/12/19 05:01:30;;;;;;;48.83;28.53;;;;;;;-0.46;100.00;97542.59;4993132;28;20544;-62
2022/12/19 05:03:56;;;;;;;51.27;28.17;;;;;;;-0.52;100.00;97543.16;4992901;28;20183;-62
2022/12/19 05:06:21;;;;;;;48.87;27.77;;;;;;;-0.68;100.00;97546.31;4988658;28;20188;-62
2022/12/19 05:08:47;;;;;;;44.40;26.17;;;;;;;-0.57;100.00;97546.16;4992961;28;20200;-63
2022/12/19 05:11:14;;;;;;;49.93;27.63;;;;;;;-0.41;100.00;97535.28;4992844;28;20185;-62
2022/12/19 05:13:39;;;;;;;47.50;26.33;;;;;;;-0.41;100.00;97527.53;4992698;28;20222;-63
2022/12/19 05:16:08;;;;;;;51.07;28.23;;;;;;;-0.36;100.00;97512.50;4993008;28;20180;-62
2022/12/19 05:18:34;;;;;;;45.50;25.17;;;;;;;-0.47;100.00;97510.09;4992467;28;20286;-62
2022/12/19 05:20:59;;;;;;;45.53;25.67;;;;;;;-0.38;100.00;97508.41;4992631;28;20184;-62
2022/12/19 05:23:25;;;;;;;48.27;26.07;;;;;;;-0.30;100.00;97503.38;4975238;28;20186;-61
2022/12/19 05:25:51;;;;;;;43.60;25.63;;;;;;;-0.29;100.00;97510.16;4993042;28;20192;-61
2022/12/19 05:28:17;;;;;;;45.00;23.80;;;;;;;-0.29;100.00;97500.69;4993038;28;20176;-63
2022/12/19 05:30:43;;;;;;;47.40;26.97;;;;;;;-0.32;100.00;97513.81;4977803;28;20204;-61
2022/12/19 05:33:09;;;;;;;45.43;27.40;;;;;;;-0.32;100.00;97524.13;4993986;28;20238;-61
2022/12/19 05:35:35;;;;;;;45.90;26.13;;;;;;;-0.30;100.00;97521.41;4978614;28;20270;-62
2022/12/19 05:38:01;;;;;;;43.20;25.73;;;;;;;-0.19;100.00;97511.75;4996149;28;20180;-62
2022/12/19 05:40:26;;;;;;;47.70;26.03;;;;;;;-0.18;100.00;97520.28;4996315;28;20274;-61
2022/12/19 05:42:52;;;;;;;49.43;27.30;;;;;;;-0.17;100.00;97521.94;4999522;28;20176;-61
2022/12/19 05:45:18;;;;;;;47.97;27.67;;;;;;;-0.22;100.00;97524.91;5015458;28;20207;-62
2022/12/19 05:47:45;;;;;;;48.90;26.50;;;;;;;-0.27;100.00;97519.34;5015716;28;20270;-61
2022/12/19 05:50:14;;;;;;;47.07;26.07;;;;;;;-0.37;100.00;97523.72;5015505;28;20677;-62
2022/12/19 05:52:40;;;;;;;45.07;27.27;;;;;;;-0.33;100.00;97511.38;4999520;28;20208;-62
2022/12/19 05:55:06;;;;;;;47.00;27.20;;;;;;;-0.31;100.00;97517.22;4997770;28;20183;-63
2022/12/19 05:57:32;;;;;;;46.23;25.60;;;;;;;-0.37;100.00;97513.44;4997836;28;20263;-63
2022/12/19 05:59:58;;;;;;;47.07;27.03;;;;;;;-0.24;100.00;97516.53;4998105;28;20219;-63
2022/12/19 06:02:23;;;;;;;44.03;26.07;;;;;;;-0.30;100.00;97505.97;5014054;28;20238;-62
2022/12/19 06:04:49;;;;;;;45.87;26.17;;;;;;;-0.29;100.00;97502.44;5002373;28;20275;-62
2022/12/19 06:07:14;;;;;;;51.70;27.63;;;;;;;-0.33;100.00;97496.75;5021613;28;20183;-62
2022/12/19 06:09:39;;;;;;;47.77;27.33;;;;;;;-0.49;100.00;97492.19;5017979;28;20606;-64
2022/12/19 06:12:05;;;;;;;47.60;28.17;;;;;;;-0.49;100.00;97507.63;5007718;28;20173;-63
2022/12/19 06:14:31;;;;;;;48.53;27.77;;;;;;;-0.47;100.00;97494.63;5013631;28;20210;-62
2022/12/19 06:16:56;;;;;;;45.40;29.60;;;;;;;-0.50;100.00;97497.47;5000064;28;20207;-63
2022/12/19 06:19:22;;;;;;;49.27;29.63;;;;;;;-0.53;100.00;97496.00;4995429;28;20274;-64
2022/12/19 06:21:47;;;;;;;43.83;26.30;;;;;;;-0.42;100.00;97498.41;4995515;28;20175;-64
2022/12/19 06:24:12;;;;;;;52.80;27.63;;;;;;;-0.46;100.00;97494.50;4996217;28;20187;-63
2022/12/19 06:26:38;;;;;;;49.70;26.43;;;;;;;-0.48;100.00;97493.00;4995254;28;20234;-62
2022/12/19 06:29:03;;;;;;;46.77;25.60;;;;;;;-0.40;100.00;97490.56;4995197;28;20286;-60
2022/12/19 06:31:28;;;;;;;43.60;25.17;;;;;;;-0.36;100.00;97497.03;4997042;28;20180;-60
2022/12/19 06:33:54;;;;;;;49.70;26.50;;;;;;;-0.22;100.00;97500.91;4999644;28;20321;-60
2022/12/19 06:36:22;;;;;;;42.80;25.43;;;;;;;-0.15;100.00;97495.06;5013586;28;20187;-59
2022/12/19 06:38:49;;;;;;;47.07;26.20;;;;;;;-0.11;100.00;97496.38;5013844;28;20680;-57
2022/12/19 06:44:01;;;;;;;42.87;25.07;;;;;;;0.08;100.00;97490.34;5005383;28;20166;-55
2022/12/19 06:46:26;;;;;;;42.57;23.53;;;;;;;0.08;100.00;97485.19;4994511;28;20172;-56
2022/12/19 06:48:52;;;;;;;50.90;26.03;;;;;;;0.15;100.00;97495.72;5000211;28;20258;-59
2022/12/19 06:51:18;;;;;;;51.37;25.87;;;;;;;0.22;100.00;97489.88;4995165;28;20172;-57
2022/12/19 06:53:43;;;;;;;40.53;24.27;;;;;;;0.28;100.00;97485.91;4974360;28;20247;-55
2022/12/19 06:56:46;;;;;;;40.30;23.57;;;;;;;0.35;100.00;97485.16;4994998;28;20178;-59
2022/12/19 06:59:13;;;;;;;44.90;24.87;;;;;;;0.46;100.00;97489.28;4995401;28;20202;-58
2022/12/19 07:01:51;;;;;;;41.50;22.20;;;;;;;0.50;100.00;97484.69;5003125;28;20169;-59
2022/12/19 07:04:24;;;;;;;39.50;24.10;;;;;;;0.54;100.00;97476.50;4992218;28;20234;-58
2022/12/19 07:06:49;;;;;;;43.60;23.27;;;;;;;0.60;100.00;97490.56;4992519;28;20173;-60
2022/12/19 07:09:15;;;;;;;39.90;23.07;;;;;;;0.62;100.00;97496.38;4978558;28;20195;-57
2022/12/19 07:11:40;;;;;;;40.87;22.43;;;;;;;0.68;100.00;97498.38;4994311;28;20267;-59
2022/12/19 07:14:05;;;;;;;38.53;23.47;;;;;;;0.70;100.00;97489.53;4994464;28;20203;-58
2022/12/19 07:16:31;;;;;;;57.33;51.40;;;;;;;0.73;100.00;97480.69;4994273;28;20184;-58
2022/12/19 07:18:58;;;;;;;40.37;22.50;;;;;;;0.66;100.00;97474.50;4995339;28;20207;-58
2022/12/19 07:21:23;;;;;;;41.07;21.60;;;;;;;0.75;100.00;97489.09;4990097;28;20184;-57
2022/12/19 07:23:49;;;;;;;34.67;21.40;;;;;;;0.81;100.00;97480.75;5012960;28;20250;-59
2022/12/19 07:26:14;;;;;;;39.17;21.87;;;;;;;0.93;100.00;97486.50;5001457;28;20188;-57
2022/12/19 07:28:43;;;;;;;35.07;20.03;;;;;;;0.98;100.00;97489.44;4962581;28;20239;-60
2022/12/19 07:31:09;;;;;;;35.57;20.27;;;;;;;1.08;100.00;97487.59;5011955;28;20195;-58
2022/12/19 07:33:34;;;;;;;33.30;20.00;;;;;;;1.06;100.00;97486.94;5003612;28;20663;-56
2022/12/19 07:36:00;;;;;;;33.77;18.87;;;;;;;1.16;100.00;97491.06;5011167;28;20179;-58
2022/12/19 07:38:26;;;;;;;33.23;18.27;;;;;;;1.18;100.00;97488.31;4974690;28;20231;-56
2022/12/19 07:40:51;;;;;;;29.60;18.67;;;;;;;1.21;100.00;97495.75;4975085;28;20219;-57
2022/12/19 07:43:17;;;;;;;34.27;20.50;;;;;;;1.28;100.00;97501.13;4974679;28;20168;-59
2022/12/19 07:45:42;;;;;;;34.23;19.77;;;;;;;1.30;100.00;97500.00;4974160;28;20315;-55
2022/12/19 07:48:08;;;;;;;33.47;20.50;;;;;;;1.43;100.00;97502.19;5008529;28;20262;-59
2022/12/19 07:50:34;;;;;;;33.03;19.83;;;;;;;1.43;100.00;97508.19;4985881;28;20814;-57
2022/12/19 07:53:00;;;;;;;30.33;17.83;;;;;;;2.81;100.00;97509.53;4998792;28;20278;-56
2022/12/19 07:55:26;;;;;;;29.17;19.40;;;;;;;3.50;100.00;97497.88;4976202;28;20230;-56
2022/12/19 07:57:52;;;;;;;35.70;19.23;;;;;;;2.38;100.00;97499.41;4980121;28;20673;-51
2022/12/19 08:00:18;;;;;;;30.20;18.00;;;;;;;2.17;100.00;97497.25;5012941;28;20313;-51
2022/12/19 08:02:43;;;;;;;27.17;17.33;;;;;;;2.08;100.00;97501.56;5012764;28;20262;-55
2022/12/19 08:05:09;;;;;;;26.87;16.50;;;;;;;2.00;100.00;97490.41;4998760;28;20180;-55
2022/12/19 08:07:34;;;;;;;25.93;17.20;;;;;;;1.97;100.00;97488.13;4995684;28;20278;-55
2022/12/19 08:10:00;;;;;;;31.40;18.27;;;;;;;2.05;100.00;97495.91;5004541;28;20195;-59
2022/12/19 08:12:25;;;;;;;28.17;17.90;;;;;;;2.08;100.00;97504.16;4996912;28;20724;-56
2022/12/19 08:14:51;;;;;;;27.13;17.67;;;;;;;1.99;100.00;97497.34;4993980;28;20187;-59
2022/12/19 08:17:17;;;;;;;25.27;16.60;;;;;;;2.05;100.00;97495.91;5011821;28;20672;-56
2022/12/19 08:19:42;;;;;;;27.03;17.60;;;;;;;1.99;100.00;97504.28;5011115;28;20203;-54
2022/12/19 08:22:08;;;;;;;26.60;15.97;;;;;;;2.06;100.00;97516.41;5003652;28;20181;-52
2022/12/19 08:24:33;;;;;;;27.70;17.97;;;;;;;2.16;100.00;97512.91;4994051;28;20276;-58
2022/12/19 08:26:59;;;;;;;30.10;18.27;;;;;;;2.18;100.00;97513.56;4985947;28;20187;-57
2022/12/19 08:29:24;;;;;;;28.33;17.47;;;;;;;2.15;100.00;97516.47;4974148;28;20545;-57
2022/12/19 08:31:50;;;;;;;28.70;17.00;;;;;;;2.09;100.00;97516.13;4981453;28;20711;-57
2022/12/19 08:34:15;;;;;;;25.40;16.33;;;;;;;2.05;100.00;97516.59;4992907;28;20230;-58
2022/12/19 08:36:41;;;;;;;27.70;18.27;;;;;;;2.28;100.00;97525.44;5011689;28;20171;-59
2022/12/19 08:39:06;;;;;;;25.97;16.60;;;;;;;2.27;100.00;97525.56;5011642;28;20199;-58
2022/12/19 08:41:32;;;;;;;32.43;18.83;;;;;;;2.08;100.00;97521.44;4998773;28;20483;-58
2022/12/19 08:43:57;;;;;;;27.73;17.53;;;;;;;2.11;100.00;97508.22;5003318;28;20183;-59
2022/12/19 08:46:23;;;;;;;32.73;18.20;;;;;;;2.19;100.00;97510.81;5008793;28;20164;-57
2022/12/19 08:48:49;;;;;;;27.63;17.00;;;;;;;2.23;100.00;97513.94;4990418;28;20207;-58
2022/12/19 08:51:15;;;;;;;23.63;15.47;;;;;;;2.30;100.00;97509.72;4993469;28;20168;-55
2022/12/19 08:53:42;;;;;;;28.97;17.20;;;;;;;2.39;100.00;97519.16;4999722;28;20737;-59
2022/12/19 08:56:12;;;;;;;23.60;16.30;;;;;;;2.35;100.00;97517.81;4990847;28;20650;-57
2022/12/19 08:58:37;;;;;;;28.60;16.40;;;;;;;2.41;100.00;97512.03;5007488;28;20176;-60
2022/12/19 09:01:09;;;;;;;27.40;17.27;;;;;;;2.36;100.00;97509.09;4993630;28;20184;-55
2022/12/19 09:03:35;;;;;;;30.70;18.70;;;;;;;2.44;100.00;97511.72;5008952;28;20183;-59
2022/12/19 09:06:05;;;;;;;25.43;16.60;;;;;;;2.48;100.00;97511.25;4989074;28;20176;-57
2022/12/19 09:08:31;;;;;;;28.53;17.43;;;;;;;2.63;100.00;97508.84;5010198;28;20234;-55
2022/12/19 09:10:58;;;;;;;25.53;15.83;;;;;;;2.59;100.00;97504.97;5015887;28;20183;-56
2022/12/19 09:13:27;;;;;;;34.20;17.20;;;;;;;2.57;100.00;97498.31;4999798;28;20208;-56
2022/12/19 09:16:05;;;;;;;28.73;17.53;;;;;;;2.54;100.00;97494.28;4993764;28;20203;-58
2022/12/19 09:18:30;;;;;;;34.90;19.67;;;;;;;2.58;100.00;97498.16;5009738;28;20492;-57
2022/12/19 09:20:57;;;;;;;28.03;18.10;;;;;;;2.53;100.00;97503.00;5002782;28;20184;-57
2022/12/19 09:23:25;;;;;;;26.47;16.57;;;;;;;2.75;100.00;97499.81;5012275;28;20190;-59
2022/12/19 09:25:52;;;;;;;27.87;17.60;;;;;;;2.80;100.00;97499.31;5016708;28;20265;-58
2022/12/19 09:28:18;;;;;;;25.47;17.07;;;;;;;2.91;100.00;97505.00;5012397;28;20186;-57
2022/12/19 09:30:43;;;;;;;23.20;16.57;;;;;;;2.89;100.00;97504.38;5015628;28;20202;-60
2022/12/19 09:33:09;;;;;;;25.97;17.47;;;;;;;2.96;100.00;97501.13;4991434;28;20236;-56
2022/12/19 09:35:35;;;;;;;23.47;15.63;;;;;;;2.98;100.00;97505.19;4977062;28;20180;-57
2022/12/19 09:38:02;;;;;;;23.20;16.27;;;;;;;3.06;100.00;97501.78;4988377;28;20168;-58
2022/12/19 09:40:34;;;;;;;22.47;16.13;;;;;;;3.12;100.00;97506.31;5015680;28;20225;-58
2022/12/19 09:43:24;;;;;;;28.57;16.93;;;;;;;3.23;100.00;97504.19;5001606;28;20200;-56
2022/12/19 09:46:04;;;;;;;24.87;16.83;;;;;;;3.36;100.00;97506.28;5010793;28;20187;-58
2022/12/19 09:48:29;;;;;;;24.23;17.13;;;;;;;3.32;100.00;97505.00;4995796;28;20187;-57
2022/12/19 09:51:25;;;;;;;25.80;16.67;;;;;;;3.24;100.00;97507.59;4976675;28;20176;-57
2022/12/19 09:54:40;;;;;;;28.47;18.03;;;;;;;3.33;100.00;97507.44;4976964;28;20192;-57
2022/12/19 09:57:15;;;;;;;30.37;19.77;;;;;;;3.45;100.00;97492.38;4974390;28;20192;-57
2022/12/19 09:59:50;;;;;;;29.13;18.63;;;;;;;3.53;100.00;97496.72;4975774;28;20287;-55
2022/12/19 10:02:35;;;;;;;25.73;17.40;;;;;;;3.46;100.00;97487.97;4981259;28;20172;-55
2022/12/19 10:05:33;;;;;;;28.13;18.77;;;;;;;3.61;100.00;97481.16;4994570;28;20187;-58
2022/12/19 10:08:00;;;;;;;22.23;16.23;;;;;;;3.74;100.00;97482.25;4987879;28;20250;-58
2022/12/19 10:10:46;;;;;;;20.37;15.93;;;;;;;3.67;100.00;97483.09;5014089;28;20664;-55
2022/12/19 10:13:27;;;;;;;22.67;16.17;;;;;;;4.03;100.00;97478.28;5009584;28;20206;-59
2022/12/19 10:16:18;;;;;;;26.23;16.80;;;;;;;4.16;100.00;97475.97;4975610;28;20172;-59
2022/12/19 10:18:51;;;;;;;23.53;15.43;;;;;;;3.99;100.00;97471.81;4972032;28;20292;-66
2022/12/19 10:21:35;;;;;;;21.43;15.03;;;;;;;4.00;100.00;97463.06;4975971;28;20615;-58
2022/12/19 10:24:13;;;;;;;26.13;16.40;;;;;;;4.01;100.00;97454.31;4991541;28;20657;-59
2022/12/19 10:26:47;;;;;;;21.90;14.60;;;;;;;3.96;100.00;97459.97;5014729;28;20186;-59
2022/12/19 10:29:46;;;;;;;18.97;13.97;;;;;;;4.04;100.00;97453.97;4976363;28;20212;-59
2022/12/19 10:32:39;;;;;;;24.30;15.03;;;;;;;3.92;100.00;97452.72;4976913;28;20235;-59
2022/12/19 10:35:14;;;;;;;26.90;15.13;;;;;;;3.86;100.00;97451.59;4993730;28;20616;-58
2022/12/19 10:38:14;;;;;;;24.23;14.93;;;;;;;3.86;100.00;97450.78;4995517;28;20179;-55
2022/12/19 10:40:44;;;;;;;19.07;15.13;;;;;;;4.00;100.00;97443.13;4963915;28;20216;-58
2022/12/19 10:43:23;;;;;;;19.97;12.97;;;;;;;4.08;100.00;97448.25;5010659;28;20175;-60
2022/12/19 10:45:55;;;;;;;19.57;14.13;;;;;;;4.15;100.00;97449.22;4995052;28;20580;-62
2022/12/19 10:48:22;;;;;;;17.73;13.13;;;;;;;4.31;100.00;97439.72;4994813;28;20172;-58
2022/12/19 10:50:48;;;;;;;17.33;13.50;;;;;;;4.27;100.00;97435.84;5001357;28;20176;-57
2022/12/19 10:53:14;;;;;;;20.87;13.53;;;;;;;4.26;100.00;97449.78;4995394;28;20206;-58
2022/12/19 10:55:49;;;;;;;18.60;13.03;;;;;;;4.17;100.00;97444.66;5014460;28;20171;-59
2022/12/19 10:58:35;;;;;;;19.47;13.53;;;;;;;4.08;100.00;97448.25;4996370;28;20195;-58
2022/12/19 11:01:05;;;;;;;19.87;13.73;;;;;;;4.07;100.00;97449.22;5002373;28;20168;-58
2022/12/19 11:03:32;;;;;;;20.00;13.20;;;;;;;4.01;100.00;97439.53;5013660;28;20270;-58
2022/12/19 11:05:59;;;;;;;18.97;12.87;;;;;;;4.03;100.00;97432.41;5007215;28;20251;-59
2022/12/19 11:08:33;;;;;;;16.40;12.30;;;;;;;4.12;100.00;97418.41;4994809;28;20633;-59
2022/12/19 11:11:04;;;;;;;19.20;11.87;;;;;;;4.14;100.00;97411.28;4994568;28;20168;-59
2022/12/19 11:13:42;;;;;;;17.73;12.77;;;;;;;4.30;100.00;97407.75;4994458;28;20207;-59
2022/12/19 11:16:08;;;;;;;18.00;13.43;;;;;;;4.35;100.00;97415.03;4999200;28;20249;-56
2022/12/19 11:18:37;;;;;;;18.67;13.53;;;;;;;4.33;100.00;97422.19;5015167;28;20199;-57
2022/12/19 11:21:13;;;;;;;21.57;13.03;;;;;;;4.47;100.00;97424.03;5003657;28;20184;-60
2022/12/19 11:23:49;;;;;;;22.23;14.10;;;;;;;4.51;100.00;97425.34;4994458;28;20182;-58
2022/12/19 11:26:32;;;;;;;19.93;14.17;;;;;;;4.35;100.00;97425.41;4961319;28;20602;-60
2022/12/19 11:29:04;;;;;;;18.90;13.43;;;;;;;4.44;100.00;97414.03;4993959;28;20227;-58
2022/12/19 11:31:34;;;;;;;16.60;13.67;;;;;;;4.62;100.00;97406.75;4994093;28;20184;-55
2022/12/19 11:34:14;;;;;;;20.07;14.23;;;;;;;4.57;100.00;97406.44;5001368;28;20232;-57
2022/12/19 11:36:55;;;;;;;19.13;14.03;;;;;;;4.74;100.00;97407.13;4994925;28;20199;-59